createdAt,value
2017-12-01T00:02:12.093Z,97558.30
2017-12-01T00:04:39.554Z,97566.05
2017-12-01T00:07:07.314Z,97562.44
2017-12-01T00:09:34.782Z,97561.64
2017-12-01T00:12:02.225Z,97555.28
2017-12-01T00:14:30.009Z,97556.30
2017-12-01T00:16:57.466Z,97561.26
2017-12-01T00:19:24.921Z,97557.02
2017-12-01T00:26:21.185Z,97573.16
2017-12-01T00:28:48.645Z,97567.61
2017-12-01T00:31:16.105Z,97561.45
2017-12-01T00:33:43.869Z,97567.81
2017-12-01T00:36:11.325Z,97563.26
2017-12-01T00:38:38.784Z,97568.14
2017-12-01T00:41:06.552Z,97574.72
2017-12-01T00:43:34.005Z,97578.03
2017-12-01T00:46:01.470Z,97574.02
2017-12-01T00:48:29.245Z,97575.73
2017-12-01T00:50:56.705Z,97576.73
2017-12-01T00:53:24.169Z,97581.38
2017-12-01T00:55:51.874Z,97585.89
2017-12-01T00:58:19.335Z,97589.23
2017-12-01T01:00:46.803Z,97594.58
2017-12-01T01:03:14.621Z,97595.66
2017-12-01T01:05:42.082Z,97604.70
2017-12-01T01:08:09.540Z,97597.80
2017-12-01T01:10:37.299Z,97602.45
2017-12-01T01:13:04.753Z,97608.45
2017-12-01T01:15:32.210Z,97612.88
2017-12-01T01:17:59.797Z,97606.92
2017-12-01T01:20:27.249Z,97608.89
2017-12-01T01:22:54.710Z,97608.66
2017-12-01T01:25:22.673Z,97606.84
2017-12-01T01:27:50.829Z,97609.31
2017-12-01T01:30:18.284Z,97604.05
2017-12-01T01:32:46.280Z,97603.84
2017-12-01T01:35:13.737Z,97604.06
2017-12-01T01:37:41.195Z,97599.18
2017-12-01T01:40:09.287Z,97597.86
2017-12-01T01:42:36.745Z,97599.67
2017-12-01T01:45:04.197Z,97608.13
2017-12-01T01:47:31.968Z,97606.14
2017-12-01T01:49:59.429Z,97603.70
2017-12-01T01:52:26.889Z,97609.63
2017-12-01T01:54:54.649Z,97606.18
2017-12-01T01:57:22.143Z,97605.50
2017-12-01T01:59:49.584Z,97603.70
2017-12-01T02:02:17.654Z,97607.52
2017-12-01T02:04:45.136Z,97612.69
2017-12-01T02:07:12.596Z,97614.20
2017-12-01T02:09:40.340Z,97616.23
2017-12-01T02:12:07.799Z,97615.44
2017-12-01T02:14:35.258Z,97616.09
2017-12-01T02:17:03.332Z,97607.28
2017-12-01T02:19:30.782Z,97605.68
2017-12-01T02:21:58.253Z,97610.05
2017-12-01T02:24:26.040Z,97612.43
2017-12-01T02:26:53.502Z,97609.89
2017-12-01T02:29:21.888Z,97602.09
2017-12-01T02:31:49.628Z,97614.56
2017-12-01T02:34:17.095Z,97611.88
2017-12-01T02:36:44.557Z,97612.60
2017-12-01T02:39:12.321Z,97608.98
2017-12-01T02:41:39.783Z,97614.27
2017-12-01T02:44:07.234Z,97617.20
2017-12-01T02:46:34.999Z,97617.20
2017-12-01T02:49:02.454Z,97620.27
2017-12-01T02:51:29.996Z,97627.77
2017-12-01T02:53:57.690Z,97627.62
2017-12-01T02:56:25.137Z,97637.81
2017-12-01T02:58:52.598Z,97637.54
2017-12-01T03:01:20.676Z,97643.91
2017-12-01T03:03:48.133Z,97648.83
2017-12-01T03:06:15.583Z,97640.46
2017-12-01T03:08:43.670Z,97639.22
2017-12-01T03:11:11.117Z,97637.48
2017-12-01T03:13:38.569Z,97643.08
2017-12-01T03:16:06.304Z,97640.22
2017-12-01T03:18:33.766Z,97637.22
2017-12-01T03:21:01.243Z,97633.34
2017-12-01T03:23:29.052Z,97635.92
2017-12-01T03:25:56.510Z,97628.98
2017-12-01T03:28:23.965Z,97626.77
2017-12-01T03:30:52.446Z,97630.43
2017-12-01T03:33:19.906Z,97620.28
2017-12-01T03:35:47.360Z,97626.89
2017-12-01T03:38:15.037Z,97640.25
2017-12-01T03:40:42.492Z,97639.70
2017-12-01T03:43:09.946Z,97639.98
2017-12-01T03:45:37.725Z,97647.77
2017-12-01T03:48:05.178Z,97643.69
2017-12-01T03:50:32.628Z,97647.72
2017-12-01T03:53:00.420Z,97652.25
2017-12-01T03:55:27.873Z,97650.45
2017-12-01T03:57:55.335Z,97655.73
2017-12-01T04:00:23.110Z,97660.94
2017-12-01T04:02:50.564Z,97664.70
2017-12-01T04:05:18.029Z,97664.19
2017-12-01T04:07:45.789Z,97665.78
2017-12-01T04:10:13.249Z,97674.46
2017-12-01T04:12:40.712Z,97677.00
2017-12-01T04:15:08.469Z,97669.71
2017-12-01T04:17:35.930Z,97680.38
2017-12-01T04:20:03.393Z,97676.69
2017-12-01T04:22:31.462Z,97672.05
2017-12-01T04:24:58.929Z,97673.67
2017-12-01T04:27:26.392Z,97674.38
2017-12-01T04:29:54.159Z,97682.28
2017-12-01T04:32:21.997Z,97683.33
2017-12-01T04:34:49.458Z,97681.17
2017-12-01T04:37:17.149Z,97686.39
2017-12-01T04:39:44.621Z,97682.58
2017-12-01T04:42:12.081Z,97689.55
2017-12-01T04:44:40.137Z,97694.73
2017-12-01T04:47:07.590Z,97695.72
2017-12-01T04:49:35.108Z,97698.78
2017-12-01T04:52:03.147Z,97701.17
2017-12-01T04:54:30.627Z,97704.38
2017-12-01T04:56:58.101Z,97704.84
2017-12-01T04:59:26.133Z,97703.69
2017-12-01T05:01:53.589Z,97710.33
2017-12-01T05:04:21.081Z,97700.80
2017-12-01T05:06:48.821Z,97703.45
2017-12-01T05:09:16.289Z,97703.16
2017-12-01T05:11:43.760Z,97705.88
2017-12-01T05:14:11.478Z,97711.84
2017-12-01T05:16:38.937Z,97707.77
2017-12-01T05:19:06.410Z,97710.89
2017-12-01T05:21:34.513Z,97709.18
2017-12-01T05:24:01.973Z,97714.41
2017-12-01T05:26:29.433Z,97705.23
2017-12-01T05:28:57.498Z,97707.48
2017-12-01T05:31:24.969Z,97716.34
2017-12-01T05:33:52.803Z,97711.73
2017-12-01T05:36:20.533Z,97729.71
2017-12-01T05:38:48.005Z,97739.49
2017-12-01T05:41:16.108Z,97737.72
2017-12-01T05:43:44.095Z,97734.80
2017-12-01T05:46:11.565Z,97750.54
2017-12-01T05:48:39.025Z,97743.66
2017-12-01T05:51:06.786Z,97750.67
2017-12-01T05:53:34.906Z,97749.05
2017-12-01T05:56:02.630Z,97753.27
2017-12-01T05:58:30.381Z,97757.47
2017-12-01T06:00:57.860Z,97764.17
2017-12-01T06:03:25.322Z,97765.67
2017-12-01T06:05:53.076Z,97766.23
2017-12-01T06:08:20.541Z,97774.34
2017-12-01T06:10:48.029Z,97775.18
2017-12-01T06:13:15.778Z,97774.72
2017-12-01T06:15:43.238Z,97768.51
2017-12-01T06:18:10.705Z,97765.86
2017-12-01T06:20:38.320Z,97771.88
2017-12-01T06:23:05.775Z,97775.79
2017-12-01T06:25:33.250Z,97784.08
2017-12-01T06:28:00.997Z,97781.20
2017-12-01T06:30:28.451Z,97786.38
2017-12-01T06:32:55.899Z,97787.50
2017-12-01T06:35:24.139Z,97791.13
2017-12-01T06:37:51.607Z,97798.98
2017-12-01T06:40:19.057Z,97806.41
2017-12-01T06:42:46.923Z,97810.92
2017-12-01T06:45:14.377Z,97806.30
2017-12-01T06:47:41.832Z,97811.31
2017-12-01T06:50:09.505Z,97808.72
2017-12-01T06:52:37.415Z,97812.23
2017-12-01T06:55:04.894Z,97822.60
2017-12-01T06:57:32.541Z,97826.60
2017-12-01T06:59:59.999Z,97835.95
2017-12-01T07:02:27.465Z,97839.19
2017-12-01T07:04:55.487Z,97838.84
2017-12-01T07:07:22.953Z,97837.66
2017-12-01T07:09:50.411Z,97849.41
2017-12-01T07:12:18.180Z,97852.83
2017-12-01T07:14:45.648Z,97858.17
2017-12-01T07:17:13.114Z,97859.46
2017-12-01T07:19:41.142Z,97849.77
2017-12-01T07:22:08.599Z,97861.96
2017-12-01T07:24:36.075Z,97857.59
2017-12-01T07:27:08.477Z,97868.44
2017-12-01T07:29:35.942Z,97866.27
2017-12-01T07:32:03.408Z,97866.60
2017-12-01T07:34:31.150Z,97859.75
2017-12-01T07:36:58.998Z,97868.16
2017-12-01T07:39:26.466Z,97868.04
2017-12-01T07:41:54.453Z,97857.86
2017-12-01T07:44:26.881Z,97870.62
2017-12-01T07:46:54.368Z,97867.77
2017-12-01T07:49:22.333Z,97864.34
2017-12-01T07:51:49.792Z,97864.66
2017-12-01T07:54:17.254Z,97864.77
2017-12-01T07:56:45.057Z,97865.74
2017-12-01T07:59:12.535Z,97868.31
2017-12-01T08:01:39.997Z,97870.69
2017-12-01T08:04:07.743Z,97871.19
2017-12-01T08:06:35.205Z,97879.46
2017-12-01T08:09:02.675Z,97879.31
2017-12-01T08:11:30.431Z,97884.41
2017-12-01T08:13:57.886Z,97885.59
2017-12-01T08:16:37.501Z,97889.13
2017-12-01T08:19:06.432Z,97895.13
2017-12-01T08:21:45.781Z,97898.90
2017-12-01T08:24:24.977Z,97901.80
2017-12-01T08:26:52.978Z,97916.73
2017-12-01T08:29:20.445Z,97917.31
2017-12-01T08:31:47.902Z,97913.23
2017-12-01T08:34:15.825Z,97915.58
2017-12-01T08:36:43.287Z,97929.09
2017-12-01T08:39:11.273Z,97925.80
2017-12-01T08:41:39.283Z,97929.41
2017-12-01T08:44:06.740Z,97936.00
2017-12-01T08:46:34.201Z,97934.06
2017-12-01T08:49:01.967Z,97933.61
2017-12-01T08:51:29.438Z,97938.13
2017-12-01T08:53:56.896Z,97937.49
2017-12-01T08:56:24.641Z,97939.90
2017-12-01T08:58:52.092Z,97942.00
2017-12-01T09:01:19.551Z,97947.80
2017-12-01T09:03:47.332Z,97947.50
2017-12-01T09:06:14.785Z,97957.27
2017-12-01T09:08:42.338Z,97953.69
2017-12-01T09:11:10.317Z,97956.96
2017-12-01T09:13:37.774Z,97957.70
2017-12-01T09:16:05.229Z,97961.53
2017-12-01T09:18:33.009Z,97957.23
2017-12-01T09:21:00.469Z,97965.28
2017-12-01T09:23:27.938Z,97970.02
2017-12-01T09:25:55.701Z,97965.02
2017-12-01T09:28:23.176Z,97969.70
2017-12-01T09:30:50.630Z,97963.03
2017-12-01T09:33:18.376Z,97973.30
2017-12-01T09:35:45.838Z,97975.26
2017-12-01T09:38:13.288Z,97973.95
2017-12-01T09:40:41.398Z,97968.02
2017-12-01T09:43:08.861Z,97974.84
2017-12-01T09:45:36.311Z,97968.33
2017-12-01T09:48:04.062Z,97972.25
2017-12-01T09:50:31.520Z,97970.27
2017-12-01T09:52:58.985Z,97971.48
2017-12-01T09:55:26.751Z,97975.80
2017-12-01T09:57:54.203Z,97974.95
2017-12-01T10:00:21.661Z,97970.11
2017-12-01T10:02:49.569Z,97964.43
2017-12-01T10:05:17.031Z,97963.20
2017-12-01T10:07:44.491Z,97961.27
2017-12-01T10:10:12.121Z,97960.54
2017-12-01T10:12:39.573Z,97959.17
2017-12-01T10:15:07.027Z,97952.84
2017-12-01T10:17:35.126Z,97957.53
2017-12-01T10:20:02.595Z,97955.16
2017-12-01T10:22:30.068Z,97947.79
2017-12-01T10:24:57.694Z,97952.09
2017-12-01T10:27:25.161Z,97952.23
2017-12-01T10:29:52.620Z,97954.38
2017-12-01T10:32:20.485Z,97952.93
2017-12-01T10:34:47.946Z,97947.98
2017-12-01T10:37:15.400Z,97952.56
2017-12-01T10:39:43.186Z,97951.38
2017-12-01T10:42:10.735Z,97949.93
2017-12-01T10:44:38.198Z,97950.20
2017-12-01T10:47:05.918Z,97950.45
2017-12-01T10:49:33.381Z,97951.81
2017-12-01T10:52:00.841Z,97948.73
2017-12-01T10:54:28.862Z,97952.50
2017-12-01T10:56:56.326Z,97955.30
2017-12-01T10:59:23.794Z,97953.15
2017-12-01T11:01:51.449Z,97967.34
2017-12-01T11:04:18.901Z,97968.97
2017-12-01T11:06:46.362Z,97965.40
2017-12-01T11:09:14.233Z,97953.34
2017-12-01T11:11:41.686Z,97946.30
2017-12-01T11:14:09.145Z,97947.64
2017-12-01T11:16:36.725Z,97954.33
2017-12-01T11:19:04.183Z,97959.31
2017-12-01T11:21:31.646Z,97959.28
2017-12-01T11:23:59.615Z,97963.47
2017-12-01T11:26:27.074Z,97963.80
2017-12-01T11:28:54.535Z,97961.95
2017-12-01T11:31:22.302Z,97963.63
2017-12-01T11:33:49.805Z,97963.19
2017-12-01T11:36:17.254Z,97964.33
2017-12-01T11:38:44.995Z,97960.91
2017-12-01T11:41:12.452Z,97956.83
2017-12-01T11:43:40.598Z,97972.05
2017-12-01T11:46:08.601Z,97975.66
2017-12-01T11:48:36.048Z,97969.05
2017-12-01T11:51:03.498Z,97961.42
2017-12-01T11:53:31.286Z,97965.09
2017-12-01T11:55:58.756Z,97969.72
2017-12-01T11:58:26.217Z,97983.75
2017-12-01T12:00:55.699Z,97982.66
2017-12-01T12:03:23.141Z,97989.80
2017-12-01T12:05:50.584Z,97980.11
2017-12-01T12:08:18.185Z,97975.30
2017-12-01T12:10:45.629Z,97978.60
2017-12-01T12:13:13.096Z,97971.67
2017-12-01T12:15:40.908Z,97978.89
2017-12-01T12:18:08.367Z,97974.10
2017-12-01T12:20:35.824Z,97972.07
2017-12-01T12:23:03.470Z,97968.08
2017-12-01T12:25:30.925Z,97966.66
2017-12-01T12:27:58.385Z,97967.86
2017-12-01T12:30:26.250Z,97974.72
2017-12-01T12:32:53.694Z,97980.64
2017-12-01T12:35:21.150Z,97980.54
2017-12-01T12:37:48.800Z,97974.56
2017-12-01T12:40:16.261Z,97978.28
2017-12-01T12:42:43.729Z,97973.14
2017-12-01T12:45:11.926Z,97982.39
2017-12-01T12:47:40.210Z,97971.75
2017-12-01T12:50:07.661Z,97971.31
2017-12-01T12:52:35.537Z,97961.74
2017-12-01T12:55:03.000Z,97962.00
2017-12-01T12:57:30.459Z,97957.38
2017-12-01T12:59:58.222Z,97960.29
2017-12-01T13:02:25.679Z,97954.62
2017-12-01T13:04:53.149Z,97949.77
2017-12-01T13:07:20.914Z,97957.83
2017-12-01T13:09:48.381Z,97959.66
2017-12-01T13:12:15.838Z,97964.45
2017-12-01T13:14:43.608Z,97959.00
2017-12-01T13:17:11.067Z,97958.52
2017-12-01T13:19:38.542Z,97959.44
2017-12-01T13:22:06.302Z,97966.92
2017-12-01T13:24:33.767Z,97969.72
2017-12-01T13:27:01.224Z,97980.47
2017-12-01T13:29:28.975Z,97979.13
2017-12-01T13:31:56.425Z,97979.29
2017-12-01T13:34:23.895Z,97981.67
2017-12-01T13:36:51.602Z,97978.20
2017-12-01T13:39:19.069Z,97987.71
2017-12-01T13:41:46.542Z,97987.80
2017-12-01T13:44:14.350Z,97993.92
2017-12-01T13:46:42.195Z,97992.64
2017-12-01T13:49:09.672Z,97994.31
2017-12-01T13:51:37.660Z,97997.52
2017-12-01T13:54:05.155Z,97996.48
2017-12-01T13:56:32.629Z,97997.63
2017-12-01T13:59:00.285Z,98007.88
2017-12-01T14:01:27.758Z,98009.63
2017-12-01T14:03:55.226Z,98011.77
2017-12-01T14:06:22.895Z,98016.61
2017-12-01T14:08:50.363Z,98023.16
2017-12-01T14:11:17.819Z,98022.62
2017-12-01T14:13:45.721Z,98022.88
2017-12-01T14:16:13.169Z,98028.13
2017-12-01T14:18:40.629Z,98029.52
2017-12-01T14:21:08.405Z,98034.38
2017-12-01T14:23:35.863Z,98037.21
2017-12-01T14:26:03.347Z,98033.94
2017-12-01T14:28:31.121Z,98048.14
2017-12-01T14:30:58.572Z,98047.98
2017-12-01T14:33:26.029Z,98046.86
2017-12-01T14:35:53.747Z,98046.94
2017-12-01T14:38:21.205Z,98053.67
2017-12-01T14:40:48.677Z,98054.67
2017-12-01T14:43:16.317Z,98072.73
2017-12-01T14:45:43.770Z,98078.73
2017-12-01T14:48:11.762Z,98081.88
2017-12-01T14:50:39.450Z,98090.30
2017-12-01T14:53:06.905Z,98089.15
2017-12-01T14:55:34.368Z,98096.94
2017-12-01T14:58:02.150Z,98091.75
2017-12-01T15:00:29.613Z,98096.19
2017-12-01T15:02:57.072Z,98102.95
2017-12-01T15:05:24.986Z,98102.52
2017-12-01T15:07:52.437Z,98107.98
2017-12-01T15:10:19.897Z,98102.73
2017-12-01T15:12:47.824Z,98109.81
2017-12-01T15:15:15.277Z,98113.45
2017-12-01T15:17:42.728Z,98116.69
2017-12-01T15:20:10.514Z,98116.18
2017-12-01T15:22:37.989Z,98110.63
2017-12-01T15:25:05.456Z,98122.59
2017-12-01T15:27:33.202Z,98122.36
2017-12-01T15:30:00.687Z,98137.73
2017-12-01T15:32:28.158Z,98136.37
2017-12-01T15:34:55.906Z,98139.74
2017-12-01T15:37:23.365Z,98145.92
2017-12-01T15:39:50.821Z,98154.11
2017-12-01T15:42:18.407Z,98161.55
2017-12-01T15:44:45.872Z,98165.28
2017-12-01T15:47:13.566Z,98172.52
2017-12-01T15:49:41.865Z,98175.88
2017-12-01T15:52:09.317Z,98171.67
2017-12-01T15:54:36.774Z,98172.63
2017-12-01T15:57:04.555Z,98176.28
2017-12-01T15:59:32.011Z,98182.81
2017-12-01T16:01:59.471Z,98183.87
2017-12-01T16:04:27.132Z,98192.53
2017-12-01T16:06:54.584Z,98191.27
2017-12-01T16:09:22.040Z,98199.88
2017-12-01T16:11:49.945Z,98201.23
2017-12-01T16:14:17.406Z,98209.00
2017-12-01T16:16:45.646Z,98211.42
2017-12-01T16:19:13.537Z,98212.70
2017-12-01T16:21:41.049Z,98217.25
2017-12-01T16:24:08.502Z,98220.83
2017-12-01T16:26:36.238Z,98225.91
2017-12-01T16:29:03.703Z,98220.12
2017-12-01T16:31:31.160Z,98223.49
2017-12-01T16:33:58.914Z,98231.77
2017-12-01T16:36:26.372Z,98231.42
2017-12-01T16:38:53.824Z,98232.30
2017-12-01T16:41:21.490Z,98236.92
2017-12-01T16:43:48.944Z,98240.53
2017-12-01T16:46:16.412Z,98233.91
2017-12-01T16:48:44.914Z,98243.28
2017-12-01T16:51:12.749Z,98250.58
2017-12-01T16:53:40.211Z,98254.83
2017-12-01T16:56:08.208Z,98252.48
2017-12-01T16:58:35.730Z,98250.80
2017-12-01T17:01:03.200Z,98250.97
2017-12-01T17:03:30.844Z,98262.49
2017-12-01T17:05:58.704Z,98263.81
2017-12-01T17:08:26.171Z,98264.47
2017-12-01T17:10:53.878Z,98269.66
2017-12-01T17:13:22.145Z,98266.83
2017-12-01T17:15:51.133Z,98269.84
2017-12-01T17:18:19.086Z,98273.77
2017-12-01T17:20:46.809Z,98279.08
2017-12-01T17:23:14.274Z,98280.60
2017-12-01T17:25:42.850Z,98290.22
2017-12-01T17:28:11.847Z,98289.42
2017-12-01T17:30:39.611Z,98288.52
2017-12-01T17:33:07.762Z,98284.30
2017-12-01T17:35:35.218Z,98300.34
2017-12-01T17:38:03.437Z,98303.86
2017-12-01T17:40:32.917Z,98306.72
2017-12-01T17:43:00.464Z,98301.37
2017-12-01T17:45:28.156Z,98301.67
2017-12-01T17:47:55.866Z,98298.88
2017-12-01T17:50:23.331Z,98298.44
2017-12-01T17:52:53.163Z,98296.20
2017-12-01T17:55:21.119Z,98300.44
2017-12-01T17:57:48.836Z,98311.28
2017-12-01T18:00:16.293Z,98307.34
2017-12-01T18:02:44.630Z,98313.57
2017-12-01T18:05:13.549Z,98316.05
2017-12-01T18:07:41.026Z,98322.17
2017-12-01T18:10:09.209Z,98315.92
2017-12-01T18:12:36.665Z,98323.38
2017-12-01T18:15:04.124Z,98319.34
2017-12-01T18:17:31.886Z,98318.01
2017-12-01T18:19:59.345Z,98324.44
2017-12-01T18:22:26.809Z,98321.77
2017-12-01T18:24:54.586Z,98322.71
2017-12-01T18:27:22.045Z,98322.16
2017-12-01T18:29:49.493Z,98323.95
2017-12-01T18:32:17.270Z,98331.59
2017-12-01T18:34:44.722Z,98332.98
2017-12-01T18:37:12.173Z,98336.59
2017-12-01T18:39:39.958Z,98338.60
2017-12-01T18:42:07.423Z,98344.00
2017-12-01T18:44:34.887Z,98342.28
2017-12-01T18:47:02.648Z,98348.85
2017-12-01T18:49:30.104Z,98355.00
2017-12-01T18:51:57.562Z,98352.93
2017-12-01T18:54:25.627Z,98351.24
2017-12-01T18:56:53.077Z,98366.48
2017-12-01T18:59:20.538Z,98360.31
2017-12-01T19:01:48.321Z,98362.08
2017-12-01T19:04:15.781Z,98365.53
2017-12-01T19:06:43.245Z,98372.92
2017-12-01T19:09:11.016Z,98370.73
2017-12-01T19:13:51.817Z,98368.91
2017-12-01T19:16:19.564Z,98373.30
2017-12-01T19:18:47.020Z,98380.61
2017-12-01T19:21:14.494Z,98378.44
2017-12-01T19:23:42.254Z,98383.96
2017-12-01T19:26:09.713Z,98379.31
2017-12-01T19:28:37.175Z,98383.22
2017-12-01T19:31:04.766Z,98387.17
2017-12-01T19:33:32.228Z,98386.55
2017-12-01T19:35:59.701Z,98385.20
2017-12-01T19:38:27.631Z,98387.72
2017-12-01T19:40:55.092Z,98393.39
2017-12-01T19:43:22.560Z,98402.91
2017-12-01T19:45:50.321Z,98399.62
2017-12-01T19:48:17.778Z,98405.52
2017-12-01T19:50:45.250Z,98402.20
2017-12-01T19:53:13.026Z,98408.19
2017-12-01T19:55:40.847Z,98413.02
2017-12-01T19:58:08.307Z,98415.99
2017-12-01T20:00:35.997Z,98420.89
2017-12-01T20:03:03.456Z,98419.45
2017-12-01T20:05:30.929Z,98423.40
2017-12-01T20:07:58.675Z,98429.55
2017-12-01T20:10:26.129Z,98426.67
2017-12-01T20:12:53.589Z,98433.79
2017-12-01T20:15:21.410Z,98428.20
2017-12-01T20:17:48.874Z,98435.17
2017-12-01T20:20:16.333Z,98437.19
2017-12-01T20:22:44.365Z,98441.02
2017-12-01T20:25:11.825Z,98440.97
2017-12-01T20:27:39.290Z,98451.95
2017-12-01T20:30:07.070Z,98448.02
2017-12-01T20:32:34.537Z,98446.14
2017-12-01T20:35:02.011Z,98446.87
2017-12-01T20:37:29.732Z,98457.69
2017-12-01T20:39:57.193Z,98452.45
2017-12-01T20:42:24.701Z,98451.02
2017-12-01T20:44:52.431Z,98456.27
2017-12-01T20:47:19.886Z,98457.57
2017-12-01T20:49:47.342Z,98450.67
2017-12-01T20:52:15.104Z,98462.22
2017-12-01T20:54:42.573Z,98459.78
2017-12-01T20:57:10.427Z,98457.56
2017-12-01T20:59:38.112Z,98465.19
2017-12-01T21:02:05.569Z,98473.64
2017-12-01T21:04:33.016Z,98464.58
2017-12-01T21:07:00.796Z,98467.60
2017-12-01T21:09:29.020Z,98466.17
2017-12-01T21:11:56.507Z,98468.32
2017-12-01T21:14:25.186Z,98472.05
2017-12-01T21:16:52.967Z,98478.75
2017-12-01T21:19:20.432Z,98475.09
2017-12-01T21:21:48.316Z,98480.32
2017-12-01T21:24:15.781Z,98470.47
2017-12-01T21:26:43.238Z,98477.20
2017-12-01T21:29:11.000Z,98479.88
2017-12-01T21:31:38.482Z,98480.55
2017-12-01T21:34:06.705Z,98480.88
2017-12-01T21:36:35.472Z,98484.13
2017-12-01T21:39:03.962Z,98481.31
2017-12-01T21:41:31.460Z,98480.33
2017-12-01T21:43:59.138Z,98494.82
2017-12-01T21:46:27.090Z,98499.80
2017-12-01T21:48:55.207Z,98501.58
2017-12-01T21:51:23.196Z,98509.76
2017-12-01T21:53:50.845Z,98515.55
2017-12-01T21:56:18.326Z,98514.53
2017-12-01T21:58:47.541Z,98520.44
2017-12-01T22:01:16.010Z,98514.13
2017-12-01T22:03:43.669Z,98515.63
2017-12-01T22:06:11.497Z,98518.26
2017-12-01T22:08:38.957Z,98515.82
2017-12-01T22:11:07.541Z,98518.59
2017-12-01T22:13:36.689Z,98516.31
2017-12-01T22:16:04.362Z,98516.23
2017-12-01T22:18:32.229Z,98518.83
2017-12-01T22:21:00.253Z,98525.37
2017-12-01T22:23:28.332Z,98526.93
2017-12-01T22:25:57.687Z,98525.27
2017-12-01T22:28:26.928Z,98519.95
2017-12-01T22:30:54.494Z,98520.74
2017-12-01T22:33:21.958Z,98517.42
2017-12-01T22:35:49.926Z,98523.47
2017-12-01T22:38:18.390Z,98530.94
2017-12-01T22:40:47.153Z,98530.16
2017-12-01T22:43:14.774Z,98534.02
2017-12-01T22:45:42.236Z,98526.75
2017-12-01T22:48:09.707Z,98529.32
2017-12-01T22:50:38.469Z,98537.63
2017-12-01T22:53:06.137Z,98541.51
2017-12-01T22:55:33.921Z,98544.46
2017-12-01T22:58:01.675Z,98544.27
2017-12-01T23:00:30.277Z,98550.26
2017-12-01T23:02:58.920Z,98547.70
2017-12-01T23:05:27.440Z,98556.94
2017-12-01T23:07:54.965Z,98556.20
2017-12-01T23:10:22.412Z,98555.53
2017-12-01T23:12:50.135Z,98560.46
2017-12-01T23:15:17.608Z,98559.85
2017-12-01T23:17:45.054Z,98564.09
2017-12-01T23:20:12.858Z,98559.30
2017-12-01T23:22:40.313Z,98560.08
2017-12-01T23:25:07.760Z,98566.23
2017-12-01T23:27:35.502Z,98562.20
2017-12-01T23:30:02.968Z,98563.59
2017-12-01T23:32:30.422Z,98560.16
2017-12-01T23:34:58.194Z,98557.27
2017-12-01T23:37:25.645Z,98549.94
2017-12-01T23:39:53.098Z,98550.88
2017-12-01T23:42:20.889Z,98545.95
2017-12-01T23:44:48.341Z,98558.69
2017-12-01T23:47:15.803Z,98550.20
2017-12-01T23:49:43.553Z,98553.50
2017-12-01T23:52:11.014Z,98560.96
2017-12-01T23:54:38.472Z,98555.34
2017-12-01T23:57:06.241Z,98558.30
2017-12-01T23:59:33.698Z,98559.00
